sensor_id;sensor_type;location;lat;lon;timestamp;pressure;altitude;pressure_sealevel;temperature;humidity
52777;BME280;38656;54.260;20.822;2023-11-21T00:01:43;100656.78;;;2.79;100.00
52777;BME280;38656;54.260;20.822;2023-11-21T00:04:10;100658.75;;;2.74;100.00
52777;BME280;38656;54.260;20.822;2023-11-21T00:06:37;100656.41;;;2.68;100.00
52777;BME280;38656;54.260;20.822;2023-11-21T00:09:03;100664.25;;;2.87;100.00
52777;BME280;38656;54.260;20.822;2023-11-21T00:11:30;100666.09;;;3.04;100.00
52777;BME280;38656;54.260;20.822;2023-11-21T00:13:57;100662.88;;;2.98;100.00
52777;BME280;38656;54.260;20.822;2023-11-21T00:16:24;100664.34;;;2.85;100.00
52777;BME280;38656;54.260;20.822;2023-11-21T00:18:51;100664.94;;;2.71;100.00
52777;BME280;38656;54.260;20.822;2023-11-21T00:21:17;100670.44;;;2.65;100.00
52777;BME280;38656;54.260;20.822;2023-11-21T00:23:43;100679.06;;;2.86;100.00
52777;BME280;38656;54.260;20.822;2023-11-21T00:26:10;100679.81;;;3.09;100.00
52777;BME280;38656;54.260;20.822;2023-11-21T00:28:36;100684.53;;;2.80;100.00
52777;BME280;38656;54.260;20.822;2023-11-21T00:31:02;100680.47;;;2.74;100.00
52777;BME280;38656;54.260;20.822;2023-11-21T00:33:30;100678.63;;;2.76;100.00
52777;BME280;38656;54.260;20.822;2023-11-21T00:35:56;100683.13;;;2.73;100.00
52777;BME280;38656;54.260;20.822;2023-11-21T00:38:22;100692.19;;;3.04;100.00
52777;BME280;38656;54.260;20.822;2023-11-21T00:40:49;100693.03;;;2.85;100.00
52777;BME280;38656;54.260;20.822;2023-11-21T00:43:15;100692.84;;;2.69;100.00
52777;BME280;38656;54.260;20.822;2023-11-21T00:45:41;100695.56;;;2.87;100.00
52777;BME280;38656;54.260;20.822;2023-11-21T00:48:07;100691.97;;;2.89;100.00
52777;BME280;38656;54.260;20.822;2023-11-21T00:50:34;100689.19;;;2.73;100.00
52777;BME280;38656;54.260;20.822;2023-11-21T00:53:00;100694.13;;;2.79;100.00
52777;BME280;38656;54.260;20.822;2023-11-21T00:55:28;100697.47;;;2.62;99.56
52777;BME280;38656;54.260;20.822;2023-11-21T00:57:55;100692.28;;;2.62;99.63
52777;BME280;38656;54.260;20.822;2023-11-21T01:00:21;100699.63;;;2.73;98.97
52777;BME280;38656;54.260;20.822;2023-11-21T01:02:49;100690.16;;;2.71;98.92
52777;BME280;38656;54.260;20.822;2023-11-21T01:05:15;100693.97;;;2.63;98.91
52777;BME280;38656;54.260;20.822;2023-11-21T01:07:41;100697.09;;;2.51;100.00
52777;BME280;38656;54.260;20.822;2023-11-21T01:10:08;100707.25;;;2.78;99.55
52777;BME280;38656;54.260;20.822;2023-11-21T01:12:36;100709.97;;;2.95;98.91
52777;BME280;38656;54.260;20.822;2023-11-21T01:15:04;100717.88;;;2.53;99.57
52777;BME280;38656;54.260;20.822;2023-11-21T01:17:35;100722.31;;;2.71;100.00
52777;BME280;38656;54.260;20.822;2023-11-21T01:20:02;100717.03;;;2.52;99.59
52777;BME280;38656;54.260;20.822;2023-11-21T01:22:29;100722.09;;;2.55;100.00
52777;BME280;38656;54.260;20.822;2023-11-21T01:24:55;100714.22;;;2.57;99.49
52777;BME280;38656;54.260;20.822;2023-11-21T01:27:21;100712.53;;;2.56;99.21
52777;BME280;38656;54.260;20.822;2023-11-21T01:29:48;100723.63;;;2.61;99.37
52777;BME280;38656;54.260;20.822;2023-11-21T01:32:14;100720.94;;;2.62;98.73
52777;BME280;38656;54.260;20.822;2023-11-21T01:34:40;100719.63;;;2.52;100.00
52777;BME280;38656;54.260;20.822;2023-11-21T01:37:06;100715.06;;;2.57;100.00
52777;BME280;38656;54.260;20.822;2023-11-21T01:39:33;100730.34;;;2.67;99.89
52777;BME280;38656;54.260;20.822;2023-11-21T01:41:59;100726.38;;;2.77;99.98
52777;BME280;38656;54.260;20.822;2023-11-21T01:44:25;100732.47;;;2.57;100.00
52777;BME280;38656;54.260;20.822;2023-11-21T01:46:52;100727.44;;;2.32;100.00
52777;BME280;38656;54.260;20.822;2023-11-21T01:49:18;100721.31;;;2.33;100.00
52777;BME280;38656;54.260;20.822;2023-11-21T01:51:48;100716.06;;;2.12;100.00
52777;BME280;38656;54.260;20.822;2023-11-21T01:54:16;100727.88;;;1.99;100.00
52777;BME280;38656;54.260;20.822;2023-11-21T01:56:47;100730.19;;;2.49;100.00
52777;BME280;38656;54.260;20.822;2023-11-21T01:59:19;100722.75;;;2.40;100.00
52777;BME280;38656;54.260;20.822;2023-11-21T02:01:47;100717.56;;;2.40;100.00
52777;BME280;38656;54.260;20.822;2023-11-21T02:04:14;100722.91;;;2.37;100.00
52777;BME280;38656;54.260;20.822;2023-11-21T02:06:40;100726.47;;;2.34;100.00
52777;BME280;38656;54.260;20.822;2023-11-21T02:09:07;100725.75;;;2.51;100.00
52777;BME280;38656;54.260;20.822;2023-11-21T02:11:34;100722.09;;;2.35;100.00
52777;BME280;38656;54.260;20.822;2023-11-21T02:14:01;100731.22;;;2.24;100.00
52777;BME280;38656;54.260;20.822;2023-11-21T02:16:27;100735.13;;;2.35;100.00
52777;BME280;38656;54.260;20.822;2023-11-21T02:18:57;100729.16;;;2.53;100.00
52777;BME280;38656;54.260;20.822;2023-11-21T02:21:25;100735.41;;;2.70;100.00
52777;BME280;38656;54.260;20.822;2023-11-21T02:23:51;100734.75;;;2.85;100.00
52777;BME280;38656;54.260;20.822;2023-11-21T02:26:17;100731.41;;;2.40;100.00
52777;BME280;38656;54.260;20.822;2023-11-21T02:28:44;100731.75;;;2.33;100.00
52777;BME280;38656;54.260;20.822;2023-11-21T02:31:10;100737.84;;;2.32;100.00
52777;BME280;38656;54.260;20.822;2023-11-21T02:33:36;100740.59;;;2.28;100.00
52777;BME280;38656;54.260;20.822;2023-11-21T02:36:03;100739.75;;;2.28;100.00
52777;BME280;38656;54.260;20.822;2023-11-21T02:38:29;100745.53;;;2.35;100.00
52777;BME280;38656;54.260;20.822;2023-11-21T02:40:57;100746.44;;;2.13;100.00
52777;BME280;38656;54.260;20.822;2023-11-21T02:43:25;100739.63;;;2.31;100.00
52777;BME280;38656;54.260;20.822;2023-11-21T02:45:51;100744.84;;;2.09;100.00
52777;BME280;38656;54.260;20.822;2023-11-21T02:48:17;100749.03;;;2.13;100.00
52777;BME280;38656;54.260;20.822;2023-11-21T02:50:43;100747.25;;;2.13;100.00
52777;BME280;38656;54.260;20.822;2023-11-21T02:53:10;100748.13;;;2.14;100.00
52777;BME280;38656;54.260;20.822;2023-11-21T02:55:36;100752.84;;;2.26;100.00
52777;BME280;38656;54.260;20.822;2023-11-21T02:58:03;100751.00;;;2.28;100.00
52777;BME280;38656;54.260;20.822;2023-11-21T03:00:32;100754.63;;;2.04;100.00
52777;BME280;38656;54.260;20.822;2023-11-21T03:02:58;100764.47;;;2.18;100.00
52777;BME280;38656;54.260;20.822;2023-11-21T03:05:24;100761.31;;;2.32;100.00
52777;BME280;38656;54.260;20.822;2023-11-21T03:07:50;100771.97;;;2.25;100.00
52777;BME280;38656;54.260;20.822;2023-11-21T03:10:17;100771.13;;;2.25;100.00
52777;BME280;38656;54.260;20.822;2023-11-21T03:12:43;100785.38;;;2.16;100.00
52777;BME280;38656;54.260;20.822;2023-11-21T03:15:10;100783.59;;;2.17;100.00
52777;BME280;38656;54.260;20.822;2023-11-21T03:17:36;100786.34;;;2.13;100.00
52777;BME280;38656;54.260;20.822;2023-11-21T03:20:03;100783.06;;;2.30;100.00
52777;BME280;38656;54.260;20.822;2023-11-21T03:22:30;100786.16;;;2.18;100.00
52777;BME280;38656;54.260;20.822;2023-11-21T03:24:56;100784.47;;;2.17;100.00
52777;BME280;38656;54.260;20.822;2023-11-21T03:27:22;100788.22;;;2.32;100.00
52777;BME280;38656;54.260;20.822;2023-11-21T03:29:48;100795.38;;;2.05;100.00
52777;BME280;38656;54.260;20.822;2023-11-21T03:32:15;100804.34;;;1.98;100.00
52777;BME280;38656;54.260;20.822;2023-11-21T03:34:56;100801.25;;;2.10;100.00
52777;BME280;38656;54.260;20.822;2023-11-21T03:37:23;100803.59;;;1.94;100.00
52777;BME280;38656;54.260;20.822;2023-11-21T03:39:50;100799.84;;;2.01;100.00
52777;BME280;38656;54.260;20.822;2023-11-21T03:42:17;100806.59;;;2.07;100.00
52777;BME280;38656;54.260;20.822;2023-11-21T03:44:43;100807.34;;;2.09;100.00
52777;BME280;38656;54.260;20.822;2023-11-21T03:47:09;100806.41;;;2.11;100.00
52777;BME280;38656;54.260;20.822;2023-11-21T03:49:35;100813.59;;;2.27;100.00
52777;BME280;38656;54.260;20.822;2023-11-21T03:52:01;100817.66;;;2.12;100.00
52777;BME280;38656;54.260;20.822;2023-11-21T03:54:28;100822.50;;;2.21;100.00
52777;BME280;38656;54.260;20.822;2023-11-21T03:56:54;100817.78;;;2.09;100.00
52777;BME280;38656;54.260;20.822;2023-11-21T03:59:20;100814.81;;;2.18;100.00
52777;BME280;38656;54.260;20.822;2023-11-21T04:01:47;100815.06;;;2.12;100.00
52777;BME280;38656;54.260;20.822;2023-11-21T04:04:13;100815.13;;;1.88;100.00
52777;BME280;38656;54.260;20.822;2023-11-21T04:06:39;100806.69;;;1.82;100.00
52777;BME280;38656;54.260;20.822;2023-11-21T04:09:05;100807.59;;;2.03;100.00
52777;BME280;38656;54.260;20.822;2023-11-21T04:11:31;100805.91;;;2.02;100.00
52777;BME280;38656;54.260;20.822;2023-11-21T04:13:57;100803.97;;;2.07;100.00
52777;BME280;38656;54.260;20.822;2023-11-21T04:16:24;100807.13;;;1.93;100.00
52777;BME280;38656;54.260;20.822;2023-11-21T04:18:50;100818.84;;;1.81;100.00
52777;BME280;38656;54.260;20.822;2023-11-21T04:21:16;100827.66;;;2.01;100.00
52777;BME280;38656;54.260;20.822;2023-11-21T04:23:43;100827.66;;;2.01;100.00
52777;BME280;38656;54.260;20.822;2023-11-21T04:26:09;100831.16;;;2.00;100.00
52777;BME280;38656;54.260;20.822;2023-11-21T04:28:35;100826.53;;;2.08;100.00
52777;BME280;38656;54.260;20.822;2023-11-21T04:31:01;100832.44;;;2.11;100.00
52777;BME280;38656;54.260;20.822;2023-11-21T04:33:28;100847.25;;;2.11;100.00
52777;BME280;38656;54.260;20.822;2023-11-21T04:35:54;100845.28;;;2.16;100.00
52777;BME280;38656;54.260;20.822;2023-11-21T04:38:21;100843.69;;;2.12;100.00
52777;BME280;38656;54.260;20.822;2023-11-21T04:40:47;100840.75;;;2.43;100.00
52777;BME280;38656;54.260;20.822;2023-11-21T04:43:13;100841.19;;;2.33;100.00
52777;BME280;38656;54.260;20.822;2023-11-21T04:45:39;100850.13;;;2.25;100.00
52777;BME280;38656;54.260;20.822;2023-11-21T04:48:07;100859.56;;;2.06;100.00
52777;BME280;38656;54.260;20.822;2023-11-21T04:50:34;100851.34;;;1.94;100.00
52777;BME280;38656;54.260;20.822;2023-11-21T04:53:00;100860.16;;;1.90;100.00
52777;BME280;38656;54.260;20.822;2023-11-21T04:55:26;100860.44;;;2.06;100.00
52777;BME280;38656;54.260;20.822;2023-11-21T04:57:54;100871.34;;;1.92;100.00
52777;BME280;38656;54.260;20.822;2023-11-21T05:00:20;100872.81;;;1.76;100.00
52777;BME280;38656;54.260;20.822;2023-11-21T05:02:47;100865.78;;;2.02;100.00
52777;BME280;38656;54.260;20.822;2023-11-21T05:05:13;100881.41;;;2.02;100.00
52777;BME280;38656;54.260;20.822;2023-11-21T05:07:40;100882.47;;;1.98;100.00
52777;BME280;38656;54.260;20.822;2023-11-21T05:10:08;100882.41;;;2.21;100.00
52777;BME280;38656;54.260;20.822;2023-11-21T05:12:37;100884.59;;;1.86;100.00
52777;BME280;38656;54.260;20.822;2023-11-21T05:15:08;100889.59;;;1.92;100.00
52777;BME280;38656;54.260;20.822;2023-11-21T05:17:40;100889.16;;;2.05;100.00
52777;BME280;38656;54.260;20.822;2023-11-21T05:20:13;100899.50;;;1.83;100.00
52777;BME280;38656;54.260;20.822;2023-11-21T05:22:43;100898.91;;;1.74;100.00
52777;BME280;38656;54.260;20.822;2023-11-21T05:25:10;100904.59;;;1.86;100.00
52777;BME280;38656;54.260;20.822;2023-11-21T05:27:37;100900.91;;;1.68;100.00
52777;BME280;38656;54.260;20.822;2023-11-21T05:30:05;100911.38;;;1.66;100.00
52777;BME280;38656;54.260;20.822;2023-11-21T05:32:32;100904.53;;;1.87;100.00
52777;BME280;38656;54.260;20.822;2023-11-21T05:34:59;100910.88;;;1.80;100.00
52777;BME280;38656;54.260;20.822;2023-11-21T05:37:25;100916.19;;;1.77;100.00
52777;BME280;38656;54.260;20.822;2023-11-21T05:39:53;100921.94;;;1.87;100.00
52777;BME280;38656;54.260;20.822;2023-11-21T05:42:22;100920.84;;;1.69;100.00
52777;BME280;38656;54.260;20.822;2023-11-21T05:44:49;100923.22;;;1.75;100.00
52777;BME280;38656;54.260;20.822;2023-11-21T05:47:15;100933.59;;;1.51;100.00
52777;BME280;38656;54.260;20.822;2023-11-21T05:49:42;100933.47;;;1.54;100.00
52777;BME280;38656;54.260;20.822;2023-11-21T05:52:08;100923.31;;;1.95;100.00
52777;BME280;38656;54.260;20.822;2023-11-21T05:54:34;100932.97;;;1.68;100.00
52777;BME280;38656;54.260;20.822;2023-11-21T05:57:00;100932.38;;;1.62;100.00
52777;BME280;38656;54.260;20.822;2023-11-21T05:59:26;100937.72;;;1.57;100.00
52777;BME280;38656;54.260;20.822;2023-11-21T06:01:53;100933.81;;;1.45;100.00
52777;BME280;38656;54.260;20.822;2023-11-21T06:04:19;100943.22;;;1.49;100.00
52777;BME280;38656;54.260;20.822;2023-11-21T06:06:50;100948.09;;;1.58;100.00
52777;BME280;38656;54.260;20.822;2023-11-21T06:09:17;100953.63;;;1.49;100.00
52777;BME280;38656;54.260;20.822;2023-11-21T06:11:43;100950.50;;;1.38;100.00
52777;BME280;38656;54.260;20.822;2023-11-21T06:14:09;100954.53;;;1.21;100.00
52777;BME280;38656;54.260;20.822;2023-11-21T06:16:37;100968.25;;;1.27;100.00
52777;BME280;38656;54.260;20.822;2023-11-21T06:19:03;100978.84;;;1.20;100.00
52777;BME280;38656;54.260;20.822;2023-11-21T06:21:31;100973.63;;;1.20;100.00
52777;BME280;38656;54.260;20.822;2023-11-21T06:23:57;100980.44;;;1.24;100.00
52777;BME280;38656;54.260;20.822;2023-11-21T06:26:23;100985.84;;;1.18;100.00
52777;BME280;38656;54.260;20.822;2023-11-21T06:28:51;100994.63;;;1.41;100.00
52777;BME280;38656;54.260;20.822;2023-11-21T06:31:18;100996.44;;;1.39;100.00
52777;BME280;38656;54.260;20.822;2023-11-21T06:33:45;101008.16;;;1.26;100.00
52777;BME280;38656;54.260;20.822;2023-11-21T06:36:11;101017.25;;;1.12;100.00
52777;BME280;38656;54.260;20.822;2023-11-21T06:38:38;101014.31;;;1.23;100.00
52777;BME280;38656;54.260;20.822;2023-11-21T06:41:04;101024.47;;;1.31;100.00
52777;BME280;38656;54.260;20.822;2023-11-21T06:43:30;101026.59;;;1.46;100.00
52777;BME280;38656;54.260;20.822;2023-11-21T06:46:00;101032.38;;;1.28;100.00
52777;BME280;38656;54.260;20.822;2023-11-21T06:48:26;101034.41;;;1.18;100.00
52777;BME280;38656;54.260;20.822;2023-11-21T06:50:52;101030.78;;;1.23;100.00
52777;BME280;38656;54.260;20.822;2023-11-21T06:53:18;101040.56;;;1.15;100.00
52777;BME280;38656;54.260;20.822;2023-11-21T06:55:45;101038.66;;;1.47;100.00
52777;BME280;38656;54.260;20.822;2023-11-21T06:58:11;101049.09;;;1.19;100.00
52777;BME280;38656;54.260;20.822;2023-11-21T07:00:40;101050.19;;;1.13;100.00
52777;BME280;38656;54.260;20.822;2023-11-21T07:03:06;101049.16;;;1.17;100.00
52777;BME280;38656;54.260;20.822;2023-11-21T07:05:32;101047.28;;;1.22;100.00
52777;BME280;38656;54.260;20.822;2023-11-21T07:07:58;101051.00;;;0.85;100.00
52777;BME280;38656;54.260;20.822;2023-11-21T07:10:30;101044.69;;;1.22;100.00
52777;BME280;38656;54.260;20.822;2023-11-21T07:12:57;101057.97;;;1.40;100.00
52777;BME280;38656;54.260;20.822;2023-11-21T07:15:23;101058.53;;;0.95;100.00
52777;BME280;38656;54.260;20.822;2023-11-21T07:17:51;101056.69;;;1.27;100.00
52777;BME280;38656;54.260;20.822;2023-11-21T07:20:20;101051.00;;;1.42;100.00
52777;BME280;38656;54.260;20.822;2023-11-21T07:22:47;101067.19;;;1.23;100.00
52777;BME280;38656;54.260;20.822;2023-11-21T07:25:13;101061.66;;;1.34;100.00
52777;BME280;38656;54.260;20.822;2023-11-21T07:27:39;101062.69;;;1.29;100.00
52777;BME280;38656;54.260;20.822;2023-11-21T07:30:06;101061.94;;;1.52;100.00
52777;BME280;38656;54.260;20.822;2023-11-21T07:32:33;101069.75;;;1.25;100.00
52777;BME280;38656;54.260;20.822;2023-11-21T07:35:00;101070.25;;;1.63;100.00
52777;BME280;38656;54.260;20.822;2023-11-21T07:37:26;101071.03;;;1.38;100.00
52777;BME280;38656;54.260;20.822;2023-11-21T07:39:55;101085.50;;;1.47;100.00
52777;BME280;38656;54.260;20.822;2023-11-21T07:42:23;101070.19;;;1.91;100.00
52777;BME280;38656;54.260;20.822;2023-11-21T07:44:52;101079.09;;;1.84;100.00
52777;BME280;38656;54.260;20.822;2023-11-21T07:47:18;101076.41;;;1.87;100.00
52777;BME280;38656;54.260;20.822;2023-11-21T07:49:44;101065.25;;;1.57;100.00
52777;BME280;38656;54.260;20.822;2023-11-21T07:52:13;101068.13;;;1.49;100.00
52777;BME280;38656;54.260;20.822;2023-11-21T07:54:39;101079.53;;;1.72;100.00
52777;BME280;38656;54.260;20.822;2023-11-21T07:57:06;101070.19;;;1.38;100.00
52777;BME280;38656;54.260;20.822;2023-11-21T07:59:33;101076.19;;;1.67;100.00
52777;BME280;38656;54.260;20.822;2023-11-21T08:01:59;101080.41;;;1.71;100.00
52777;BME280;38656;54.260;20.822;2023-11-21T08:04:25;101069.69;;;1.53;100.00
52777;BME280;38656;54.260;20.822;2023-11-21T08:06:52;101084.22;;;1.87;100.00
52777;BME280;38656;54.260;20.822;2023-11-21T08:09:18;101075.44;;;1.90;100.00
52777;BME280;38656;54.260;20.822;2023-11-21T08:11:44;101075.59;;;1.85;100.00
52777;BME280;38656;54.260;20.822;2023-11-21T08:14:10;101075.59;;;1.85;100.00
52777;BME280;38656;54.260;20.822;2023-11-21T08:16:36;101076.00;;;1.73;100.00
52777;BME280;38656;54.260;20.822;2023-11-21T08:19:02;101080.31;;;1.74;100.00
52777;BME280;38656;54.260;20.822;2023-11-21T08:21:29;101090.88;;;1.96;100.00
52777;BME280;38656;54.260;20.822;2023-11-21T08:23:55;101083.25;;;2.15;100.00
52777;BME280;38656;54.260;20.822;2023-11-21T08:26:22;101091.13;;;1.88;100.00
52777;BME280;38656;54.260;20.822;2023-11-21T08:28:51;101091.13;;;1.88;100.00
52777;BME280;38656;54.260;20.822;2023-11-21T08:31:26;101101.53;;;1.88;100.00
52777;BME280;38656;54.260;20.822;2023-11-21T08:33:52;101094.13;;;1.76;100.00
52777;BME280;38656;54.260;20.822;2023-11-21T08:36:22;101099.09;;;2.09;100.00
52777;BME280;38656;54.260;20.822;2023-11-21T08:38:50;101106.63;;;2.42;100.00
52777;BME280;38656;54.260;20.822;2023-11-21T08:41:18;101109.19;;;2.18;100.00
52777;BME280;38656;54.260;20.822;2023-11-21T08:43:49;101101.13;;;2.26;100.00
52777;BME280;38656;54.260;20.822;2023-11-21T08:46:15;101108.50;;;2.13;100.00
52777;BME280;38656;54.260;20.822;2023-11-21T08:48:43;101115.69;;;2.06;100.00
52777;BME280;38656;54.260;20.822;2023-11-21T08:51:11;101116.53;;;2.07;100.00
52777;BME280;38656;54.260;20.822;2023-11-21T08:53:40;101117.50;;;2.29;100.00
52777;BME280;38656;54.260;20.822;2023-11-21T08:56:07;101116.09;;;2.19;100.00
52777;BME280;38656;54.260;20.822;2023-11-21T08:58:34;101114.50;;;2.15;100.00
52777;BME280;38656;54.260;20.822;2023-11-21T09:01:05;101109.41;;;2.12;100.00
52777;BME280;38656;54.260;20.822;2023-11-21T09:03:33;101114.13;;;2.51;100.00
52777;BME280;38656;54.260;20.822;2023-11-21T09:06:00;101125.25;;;2.56;100.00
52777;BME280;38656;54.260;20.822;2023-11-21T09:08:26;101114.13;;;2.75;100.00
52777;BME280;38656;54.260;20.822;2023-11-21T09:10:55;101118.09;;;2.61;100.00
52777;BME280;38656;54.260;20.822;2023-11-21T09:13:21;101112.59;;;2.45;100.00
52777;BME280;38656;54.260;20.822;2023-11-21T09:15:47;101118.50;;;2.74;100.00
52777;BME280;38656;54.260;20.822;2023-11-21T09:18:15;101121.72;;;3.05;100.00
52777;BME280;38656;54.260;20.822;2023-11-21T09:20:43;101116.91;;;3.40;100.00
52777;BME280;38656;54.260;20.822;2023-11-21T09:23:10;101114.66;;;3.30;97.75
52777;BME280;38656;54.260;20.822;2023-11-21T09:25:36;101118.91;;;3.33;97.92
52777;BME280;38656;54.260;20.822;2023-11-21T09:28:04;101105.13;;;3.29;96.76
52777;BME280;38656;54.260;20.822;2023-11-21T09:30:34;101118.44;;;2.99;97.05
52777;BME280;38656;54.260;20.822;2023-11-21T09:33:01;101113.97;;;3.47;96.98
52777;BME280;38656;54.260;20.822;2023-11-21T09:35:28;101121.25;;;3.61;96.66
52777;BME280;38656;54.260;20.822;2023-11-21T09:37:54;101128.81;;;3.47;94.66
52777;BME280;38656;54.260;20.822;2023-11-21T09:40:22;101131.69;;;4.24;94.17
52777;BME280;38656;54.260;20.822;2023-11-21T09:42:55;101129.97;;;3.82;93.39
52777;BME280;38656;54.260;20.822;2023-11-21T09:45:54;101129.28;;;3.99;91.94
52777;BME280;38656;54.260;20.822;2023-11-21T09:48:24;101133.09;;;3.70;90.98
52777;BME280;38656;54.260;20.822;2023-11-21T09:50:52;101124.28;;;3.72;91.18
52777;BME280;38656;54.260;20.822;2023-11-21T09:53:20;101129.75;;;3.66;89.30
52777;BME280;38656;54.260;20.822;2023-11-21T09:55:50;101123.56;;;3.25;91.57
52777;BME280;38656;54.260;20.822;2023-11-21T09:58:17;101130.31;;;3.95;90.95
52777;BME280;38656;54.260;20.822;2023-11-21T10:00:47;101131.75;;;3.82;90.57
52777;BME280;38656;54.260;20.822;2023-11-21T10:03:14;101132.56;;;3.40;90.87
52777;BME280;38656;54.260;20.822;2023-11-21T10:05:43;101138.25;;;3.27;91.86
52777;BME280;38656;54.260;20.822;2023-11-21T10:08:12;101142.25;;;3.14;90.85
52777;BME280;38656;54.260;20.822;2023-11-21T10:10:44;101134.00;;;3.25;90.92
52777;BME280;38656;54.260;20.822;2023-11-21T10:13:12;101137.97;;;3.35;91.01
52777;BME280;38656;54.260;20.822;2023-11-21T10:15:42;101138.25;;;3.71;90.75
52777;BME280;38656;54.260;20.822;2023-11-21T10:18:15;101136.56;;;3.70;90.15
52777;BME280;38656;54.260;20.822;2023-11-21T10:20:41;101136.59;;;4.12;88.97
52777;BME280;38656;54.260;20.822;2023-11-21T10:23:09;101130.31;;;7.22;70.21
52777;BME280;38656;54.260;20.822;2023-11-21T10:25:37;101124.69;;;8.66;56.67
52777;BME280;38656;54.260;20.822;2023-11-21T10:28:04;101137.28;;;8.61;57.34
52777;BME280;38656;54.260;20.822;2023-11-21T10:30:37;101144.69;;;7.79;53.96
52777;BME280;38656;54.260;20.822;2023-11-21T10:33:07;101135.69;;;8.73;52.33
52777;BME280;38656;54.260;20.822;2023-11-21T10:35:45;101136.44;;;9.85;48.77
52777;BME280;38656;54.260;20.822;2023-11-21T10:38:19;101138.13;;;8.90;49.42
52777;BME280;38656;54.260;20.822;2023-11-21T10:40:48;101130.41;;;8.73;49.25
52777;BME280;38656;54.260;20.822;2023-11-21T10:43:16;101128.97;;;9.10;50.18
52777;BME280;38656;54.260;20.822;2023-11-21T10:45:43;101141.25;;;9.38;46.32
52777;BME280;38656;54.260;20.822;2023-11-21T10:48:16;101135.66;;;10.23;46.22
52777;BME280;38656;54.260;20.822;2023-11-21T10:50:43;101140.94;;;9.70;44.47
52777;BME280;38656;54.260;20.822;2023-11-21T10:53:10;101144.56;;;10.22;44.92
52777;BME280;38656;54.260;20.822;2023-11-21T10:55:38;101149.59;;;11.15;43.32
52777;BME280;38656;54.260;20.822;2023-11-21T10:58:05;101144.50;;;11.98;41.44
52777;BME280;38656;54.260;20.822;2023-11-21T11:00:34;101159.25;;;9.99;42.72
52777;BME280;38656;54.260;20.822;2023-11-21T11:03:01;101152.81;;;10.56;41.98
52777;BME280;38656;54.260;20.822;2023-11-21T11:05:29;101146.28;;;10.62;41.87
52777;BME280;38656;54.260;20.822;2023-11-21T11:08:05;101134.53;;;12.93;41.13
52777;BME280;38656;54.260;20.822;2023-11-21T11:10:33;101143.19;;;11.79;39.46
52777;BME280;38656;54.260;20.822;2023-11-21T11:13:01;101150.97;;;11.94;41.07
52777;BME280;38656;54.260;20.822;2023-11-21T11:15:28;101151.69;;;11.10;39.37
52777;BME280;38656;54.260;20.822;2023-11-21T11:17:55;101148.72;;;11.76;40.26
52777;BME280;38656;54.260;20.822;2023-11-21T11:20:32;101150.41;;;11.77;40.37
52777;BME280;38656;54.260;20.822;2023-11-21T11:23:24;101156.19;;;12.07;39.04
52777;BME280;38656;54.260;20.822;2023-11-21T11:34:32;101155.94;;;12.45;38.08
52777;BME280;38656;54.260;20.822;2023-11-21T11:37:07;101160.38;;;12.45;37.10
52777;BME280;38656;54.260;20.822;2023-11-21T11:39:38;101158.47;;;13.81;36.62
52777;BME280;38656;54.260;20.822;2023-11-21T11:42:07;101154.59;;;12.51;36.33
52777;BME280;38656;54.260;20.822;2023-11-21T11:50:09;101169.81;;;14.25;36.07
52777;BME280;38656;54.260;20.822;2023-11-21T11:52:43;101168.47;;;14.73;34.78
52777;BME280;38656;54.260;20.822;2023-11-21T11:55:11;101166.31;;;13.39;35.46
52777;BME280;38656;54.260;20.822;2023-11-21T11:57:39;101174.03;;;12.85;36.07
52777;BME280;38656;54.260;20.822;2023-11-21T12:02:41;101176.88;;;11.77;36.34
52777;BME280;38656;54.260;20.822;2023-11-21T12:05:15;101174.38;;;12.47;37.27
52777;BME280;38656;54.260;20.822;2023-11-21T12:07:43;101175.97;;;13.84;36.11
52777;BME280;38656;54.260;20.822;2023-11-21T12:10:15;101176.44;;;13.77;34.87
52777;BME280;38656;54.260;20.822;2023-11-21T12:12:48;101185.13;;;13.36;35.43
52777;BME280;38656;54.260;20.822;2023-11-21T12:15:15;101172.47;;;12.94;35.71
52777;BME280;38656;54.260;20.822;2023-11-21T12:17:43;101178.06;;;13.69;35.38
52777;BME280;38656;54.260;20.822;2023-11-21T12:20:11;101178.38;;;13.43;35.64
52777;BME280;38656;54.260;20.822;2023-11-21T12:22:43;101184.41;;;12.77;36.12
52777;BME280;38656;54.260;20.822;2023-11-21T12:25:09;101198.09;;;13.50;34.67
52777;BME280;38656;54.260;20.822;2023-11-21T12:27:36;101194.03;;;12.89;35.52
52777;BME280;38656;54.260;20.822;2023-11-21T12:30:02;101198.16;;;12.93;36.08
52777;BME280;38656;54.260;20.822;2023-11-21T12:32:28;101206.44;;;13.00;35.52
52777;BME280;38656;54.260;20.822;2023-11-21T12:34:54;101219.34;;;12.00;35.43
52777;BME280;38656;54.260;20.822;2023-11-21T12:37:21;101216.00;;;10.47;36.86
52777;BME280;38656;54.260;20.822;2023-11-21T12:39:48;101217.44;;;11.28;36.33
52777;BME280;38656;54.260;20.822;2023-11-21T12:42:15;101211.88;;;12.99;35.64
52777;BME280;38656;54.260;20.822;2023-11-21T12:44:42;101219.16;;;12.14;35.37
52777;BME280;38656;54.260;20.822;2023-11-21T12:47:11;101225.47;;;12.36;35.14
52777;BME280;38656;54.260;20.822;2023-11-21T12:49:42;101234.06;;;11.67;35.06
52777;BME280;38656;54.260;20.822;2023-11-21T12:52:10;101231.31;;;11.19;36.67
52777;BME280;38656;54.260;20.822;2023-11-21T12:54:37;101238.00;;;11.11;37.13
52777;BME280;38656;54.260;20.822;2023-11-21T12:57:04;101235.34;;;12.23;37.70
52777;BME280;38656;54.260;20.822;2023-11-21T12:59:34;101244.53;;;11.19;36.38